createdAt,value
2023-05-17T00:01:45.785Z,6.20
2023-05-17T00:04:12.618Z,6.10
2023-05-17T00:06:39.310Z,6.10
2023-05-17T00:09:05.990Z,6.30
2023-05-17T00:11:32.800Z,6.30
2023-05-17T00:13:59.509Z,6.30
2023-05-17T00:16:26.696Z,6.30
2023-05-17T00:18:53.500Z,6.10
2023-05-17T00:21:20.543Z,6.10
2023-05-17T00:36:02.767Z,5.60
2023-05-17T00:43:23.672Z,5.40
2023-05-17T00:45:51.786Z,6.70
2023-05-17T00:48:21.114Z,5.30
2023-05-17T00:50:48.158Z,5.20
2023-05-17T00:53:16.340Z,5.40
2023-05-17T00:55:44.084Z,5.90
2023-05-17T00:58:14.406Z,5.10
2023-05-17T01:00:41.614Z,5.30
2023-05-17T01:10:40.890Z,4.90
2023-05-17T01:13:15.725Z,4.90
2023-05-17T01:15:52.996Z,5.10
2023-05-17T01:18:35.036Z,5.10
2023-05-17T01:21:02.533Z,5.00
2023-05-17T01:26:21.848Z,4.70
2023-05-17T01:28:51.232Z,4.90
2023-05-17T01:31:18.509Z,5.00
2023-05-17T01:33:45.300Z,5.00
2023-05-17T01:36:12.466Z,4.80
2023-05-17T01:38:39.352Z,4.80
2023-05-17T01:41:14.092Z,4.70
2023-05-17T01:43:48.517Z,5.20
2023-05-17T01:46:38.998Z,4.50
2023-05-17T01:49:05.724Z,4.60
2023-05-17T01:51:34.359Z,4.70
2023-05-17T01:54:02.786Z,4.60
2023-05-17T01:56:33.585Z,4.50
2023-05-17T01:59:02.776Z,4.60
2023-05-17T02:01:30.621Z,4.20
2023-05-17T02:03:57.292Z,4.30
2023-05-17T02:06:24.006Z,4.20
2023-05-17T02:08:50.728Z,4.10
2023-05-17T02:11:17.465Z,3.90
2023-05-17T02:13:44.072Z,3.90
2023-05-17T02:16:11.123Z,3.90
2023-05-17T02:18:38.312Z,3.80
2023-05-17T02:21:05.330Z,3.80
2023-05-17T02:23:31.975Z,3.70
2023-05-17T02:25:58.580Z,3.70
2023-05-17T02:28:25.300Z,3.50
2023-05-17T02:30:53.062Z,3.50
2023-05-17T02:33:19.865Z,3.40
2023-05-17T02:35:46.513Z,3.30
2023-05-17T02:38:13.100Z,3.30
2023-05-17T02:40:41.084Z,3.60
2023-05-17T02:43:07.717Z,3.50
2023-05-17T02:45:34.371Z,3.40
2023-05-17T02:48:01.011Z,3.40
2023-05-17T02:50:27.709Z,3.50
2023-05-17T02:52:54.353Z,3.60
2023-05-17T02:55:21.658Z,3.50
2023-05-17T02:57:48.304Z,3.50
2023-05-17T03:00:16.693Z,3.50
2023-05-17T03:02:43.448Z,3.50
2023-05-17T03:05:10.333Z,3.50
2023-05-17T03:07:37.078Z,3.60
2023-05-17T03:10:03.800Z,3.60
2023-05-17T03:12:30.544Z,3.80
2023-05-17T03:14:57.143Z,3.60
2023-05-17T03:17:23.808Z,3.70
2023-05-17T03:19:50.512Z,3.40
2023-05-17T03:22:17.143Z,3.60
2023-05-17T03:24:43.789Z,3.70
2023-05-17T03:27:10.482Z,3.70
2023-05-17T03:29:37.113Z,3.70
2023-05-17T03:32:03.821Z,3.80
2023-05-17T03:34:30.426Z,3.90
2023-05-17T03:36:57.084Z,3.80
2023-05-17T03:39:23.715Z,3.60
2023-05-17T03:41:51.008Z,3.70
2023-05-17T03:44:17.726Z,3.80
2023-05-17T03:46:44.437Z,3.80
2023-05-17T03:49:11.223Z,3.90
2023-05-17T03:51:37.975Z,3.80
2023-05-17T03:54:04.631Z,3.80
2023-05-17T03:56:31.598Z,3.60
2023-05-17T03:58:58.358Z,3.60
2023-05-17T04:01:24.969Z,3.70
2023-05-17T04:03:51.696Z,3.70
2023-05-17T04:06:18.327Z,3.40
2023-05-17T04:08:45.017Z,3.70
2023-05-17T04:11:13.736Z,3.50
2023-05-17T04:13:41.061Z,3.40
2023-05-17T04:16:08.881Z,3.40
2023-05-17T04:18:36.550Z,3.50
2023-05-17T04:21:03.642Z,3.30
2023-05-17T04:23:30.606Z,3.50
2023-05-17T04:25:58.430Z,3.60
2023-05-17T04:28:25.952Z,3.40
2023-05-17T04:30:53.070Z,3.50
2023-05-17T04:33:20.087Z,3.40
2023-05-17T04:35:46.895Z,3.20
2023-05-17T04:38:13.520Z,3.40
2023-05-17T04:40:40.148Z,3.40
2023-05-17T04:43:07.038Z,3.50
2023-05-17T04:45:33.965Z,3.80
2023-05-17T04:50:28.274Z,4.20
2023-05-17T04:52:54.852Z,4.30
2023-05-17T04:55:21.757Z,4.30
2023-05-17T04:57:48.403Z,4.40
2023-05-17T05:00:15.813Z,4.30
2023-05-17T05:02:42.576Z,4.40
2023-05-17T05:05:12.104Z,4.30
2023-05-17T05:07:39.979Z,4.40
2023-05-17T05:10:07.245Z,4.30
2023-05-17T05:12:33.909Z,4.60
2023-05-17T05:17:30.849Z,4.60
2023-05-17T05:19:57.849Z,4.70
2023-05-17T05:22:24.845Z,4.80
2023-05-17T05:24:51.913Z,4.90
2023-05-17T05:27:18.498Z,5.10
2023-05-17T05:29:45.763Z,5.30
2023-05-17T05:32:12.418Z,5.50
2023-05-17T05:34:39.334Z,5.60
2023-05-17T05:37:05.960Z,5.20
2023-05-17T05:41:59.769Z,5.90
2023-05-17T05:44:26.418Z,6.40
2023-05-17T05:46:53.115Z,5.90
2023-05-17T05:49:19.812Z,6.30
2023-05-17T05:51:46.529Z,6.30
2023-05-17T05:54:13.502Z,6.20
2023-05-17T05:56:40.235Z,6.60
2023-05-17T05:59:07.215Z,5.40
2023-05-17T06:01:34.227Z,6.20
2023-05-17T06:04:01.075Z,6.50
2023-05-17T06:08:55.185Z,7.20
2023-05-17T06:11:24.416Z,6.90
2023-05-17T06:13:51.105Z,7.10
2023-05-17T06:16:18.005Z,7.30
2023-05-17T06:18:44.730Z,7.30
2023-05-17T06:21:13.448Z,6.90
2023-05-17T06:23:40.094Z,7.20
2023-05-17T06:26:10.470Z,7.60
2023-05-17T06:28:37.716Z,7.20
2023-05-17T06:31:04.498Z,7.40
2023-05-17T06:33:31.258Z,8.20
2023-05-17T06:40:54.206Z,8.50
2023-05-17T06:45:48.043Z,8.90
2023-05-17T06:48:15.276Z,8.70
2023-05-17T06:50:41.937Z,8.80
2023-05-17T06:55:36.023Z,9.70
2023-05-17T07:00:30.426Z,11.40
2023-05-17T07:02:57.538Z,10.10
2023-05-17T07:10:19.005Z,10.50
2023-05-17T07:12:48.782Z,10.50
2023-05-17T07:17:42.649Z,10.90
2023-05-17T07:37:22.048Z,13.40
2023-05-17T07:39:48.697Z,13.00
2023-05-17T07:42:15.939Z,12.80
2023-05-17T07:44:42.597Z,12.90
2023-05-17T07:47:11.918Z,13.00
2023-05-17T07:49:38.697Z,13.40
2023-05-17T07:52:05.491Z,15.20
2023-05-17T07:54:32.288Z,13.60
2023-05-17T07:56:59.751Z,14.60
2023-05-17T07:59:26.644Z,14.30
2023-05-17T08:01:53.971Z,12.50
2023-05-17T08:04:20.808Z,12.30
2023-05-17T08:06:51.280Z,12.90
2023-05-17T08:09:31.008Z,13.30
2023-05-17T08:11:57.680Z,13.30
2023-05-17T08:14:24.888Z,14.40
2023-05-17T08:16:51.946Z,13.10
2023-05-17T08:19:19.138Z,12.70
2023-05-17T08:21:46.913Z,12.00
2023-05-17T08:24:13.575Z,11.60
2023-05-17T08:26:40.706Z,12.80
2023-05-17T08:29:07.389Z,12.70
2023-05-17T08:31:34.238Z,14.30
2023-05-17T08:34:00.925Z,12.20
2023-05-17T08:36:28.392Z,12.10
2023-05-17T08:38:55.159Z,11.80
2023-05-17T08:41:22.407Z,12.10
2023-05-17T08:43:49.542Z,12.30
2023-05-17T08:46:18.579Z,12.00
2023-05-17T08:48:46.228Z,11.70
2023-05-17T08:51:14.167Z,11.90
2023-05-17T08:53:42.574Z,13.20
2023-05-17T08:56:10.396Z,12.90
2023-05-17T08:58:52.351Z,11.40
2023-05-17T09:01:25.526Z,12.20
2023-05-17T09:03:56.577Z,12.20
2023-05-17T09:06:23.697Z,12.30
2023-05-17T09:08:52.832Z,12.40
2023-05-17T09:11:26.291Z,12.40
2023-05-17T09:13:53.000Z,12.50
2023-05-17T09:16:21.425Z,12.50
2023-05-17T09:18:57.916Z,12.70
2023-05-17T09:21:25.530Z,12.70
2023-05-17T09:24:04.884Z,12.80
2023-05-17T09:26:39.180Z,12.90
2023-05-17T09:29:13.088Z,12.90
2023-05-17T09:31:40.372Z,12.90
2023-05-17T09:34:08.181Z,12.70
2023-05-17T09:36:36.199Z,12.90
2023-05-17T09:39:08.117Z,12.90
2023-05-17T09:41:45.458Z,12.90
2023-05-17T09:44:12.845Z,13.10
2023-05-17T09:46:44.473Z,13.10
2023-05-17T09:49:12.768Z,13.20
2023-05-17T09:51:43.900Z,13.20
2023-05-17T09:54:22.204Z,13.20
2023-05-17T10:00:23.332Z,13.10
2023-05-17T10:02:57.219Z,13.10
2023-05-17T10:05:24.544Z,13.10
2023-05-17T10:07:56.586Z,13.20
2023-05-17T10:10:26.267Z,14.00
2023-05-17T10:12:53.336Z,13.30
2023-05-17T10:15:20.732Z,13.30
2023-05-17T10:17:48.199Z,13.40
2023-05-17T10:20:15.575Z,13.30
2023-05-17T10:22:42.612Z,14.50
2023-05-17T10:25:09.854Z,13.40
2023-05-17T10:27:36.482Z,13.60
2023-05-17T10:30:03.282Z,13.30
2023-05-17T10:32:30.842Z,13.50
2023-05-17T10:35:10.345Z,13.50
2023-05-17T10:37:49.552Z,14.50
2023-05-17T10:40:17.513Z,13.90
2023-05-17T10:42:46.786Z,14.60
2023-05-17T10:45:13.638Z,13.70
2023-05-17T10:47:43.348Z,13.50
2023-05-17T10:50:13.431Z,13.20
2023-05-17T10:52:46.751Z,14.30
2023-05-17T10:55:13.467Z,13.70
2023-05-17T10:57:49.643Z,13.30
2023-05-17T11:00:20.929Z,15.00
2023-05-17T11:02:49.041Z,14.20
2023-05-17T11:05:25.999Z,14.00
2023-05-17T11:07:52.854Z,14.90
2023-05-17T11:10:19.508Z,17.00
2023-05-17T11:12:49.484Z,16.40
2023-05-17T11:15:16.535Z,14.40
2023-05-17T11:17:43.348Z,16.20
2023-05-17T11:20:31.431Z,16.80
2023-05-17T11:23:01.035Z,16.60
2023-05-17T11:25:28.663Z,14.70
2023-05-17T11:27:55.346Z,16.40
2023-05-17T11:30:23.291Z,16.30
2023-05-17T11:35:18.365Z,14.50
2023-05-17T11:37:45.506Z,14.00
2023-05-17T11:40:13.381Z,14.30
2023-05-17T11:42:40.121Z,14.40
2023-05-17T11:45:07.281Z,15.90
2023-05-17T11:47:34.721Z,14.70
2023-05-17T11:50:03.004Z,15.40
2023-05-17T11:52:29.818Z,13.50
2023-05-17T11:55:00.668Z,15.50
2023-05-17T11:57:31.211Z,14.50
2023-05-17T12:00:01.535Z,14.90
2023-05-17T12:02:31.915Z,16.70
2023-05-17T12:04:59.069Z,16.80
2023-05-17T12:07:25.987Z,15.70
2023-05-17T12:09:53.327Z,16.30
2023-05-17T12:12:22.001Z,14.50
2023-05-17T12:14:48.767Z,16.90
2023-05-17T12:17:24.595Z,14.90
2023-05-17T12:19:55.472Z,15.50
2023-05-17T12:22:22.308Z,15.50
2023-05-17T12:24:48.989Z,15.40
2023-05-17T12:27:24.602Z,14.20
2023-05-17T12:29:51.279Z,13.50
2023-05-17T12:32:17.912Z,13.00
2023-05-17T12:34:45.097Z,15.80
2023-05-17T12:37:13.380Z,15.60
2023-05-17T12:39:40.354Z,14.60
2023-05-17T12:42:07.326Z,15.60
2023-05-17T12:44:33.932Z,17.60
2023-05-17T12:47:02.365Z,16.80
2023-05-17T12:49:28.961Z,17.20
2023-05-17T12:51:55.594Z,18.20
2023-05-17T12:54:26.510Z,18.00
2023-05-17T12:56:53.298Z,16.50
2023-05-17T12:59:25.618Z,16.40
2023-05-17T13:01:53.563Z,16.60
2023-05-17T13:04:21.017Z,18.20
2023-05-17T13:06:47.839Z,16.30
2023-05-17T13:09:15.838Z,17.70
2023-05-17T13:11:42.847Z,19.20
2023-05-17T13:14:10.047Z,20.40
2023-05-17T13:16:41.299Z,18.80
2023-05-17T13:19:14.373Z,17.70
2023-05-17T13:21:41.107Z,18.40
2023-05-17T13:24:09.270Z,19.10
2023-05-17T13:26:36.029Z,20.10
2023-05-17T13:29:02.832Z,20.60
2023-05-17T13:31:29.417Z,19.80
2023-05-17T13:33:56.447Z,19.40
2023-05-17T13:36:23.317Z,19.30
2023-05-17T13:38:49.923Z,19.40
2023-05-17T13:41:16.584Z,20.20
2023-05-17T13:43:43.230Z,21.40
2023-05-17T13:46:09.887Z,22.00
2023-05-17T13:48:37.389Z,22.80
2023-05-17T13:53:32.288Z,21.20
2023-05-17T13:55:58.894Z,19.70
2023-05-17T13:58:25.549Z,18.30
2023-05-17T14:03:19.619Z,16.50
2023-05-17T14:05:49.644Z,16.00
2023-05-17T14:08:16.962Z,15.80
2023-05-17T14:10:43.664Z,16.00
2023-05-17T14:13:11.822Z,16.80
2023-05-17T14:15:39.870Z,18.10
2023-05-17T14:18:07.003Z,18.60
2023-05-17T14:20:33.959Z,18.70
2023-05-17T14:23:01.527Z,20.40
2023-05-17T14:25:28.192Z,20.20
2023-05-17T14:27:54.856Z,20.40
2023-05-17T14:30:21.523Z,21.10
2023-05-17T14:32:48.348Z,20.70
2023-05-17T14:35:16.425Z,20.60
2023-05-17T14:40:29.808Z,19.60
2023-05-17T14:42:57.230Z,18.80
2023-05-17T14:45:23.853Z,18.70
2023-05-17T14:47:50.683Z,19.10
2023-05-17T14:50:17.402Z,18.50
2023-05-17T14:52:44.438Z,18.30
2023-05-17T14:55:11.142Z,16.30
2023-05-17T15:00:38.433Z,19.40
2023-05-17T15:03:21.801Z,19.20
2023-05-17T15:13:01.497Z,19.20
2023-05-17T15:15:28.283Z,19.40
2023-05-17T15:17:55.232Z,19.70
2023-05-17T15:20:21.978Z,17.90
2023-05-17T15:22:48.648Z,19.90
2023-05-17T15:25:16.061Z,21.40
2023-05-17T15:27:42.669Z,19.70
2023-05-17T15:30:11.280Z,19.50
2023-05-17T15:32:39.250Z,18.60
2023-05-17T15:35:07.343Z,18.60
2023-05-17T15:37:33.960Z,20.60
2023-05-17T15:40:07.126Z,21.20
2023-05-17T15:42:33.763Z,21.40
2023-05-17T15:45:04.751Z,20.90
2023-05-17T15:47:42.438Z,20.50
2023-05-17T15:50:10.199Z,19.60
2023-05-17T15:52:36.799Z,18.60
2023-05-17T15:55:03.543Z,18.50
2023-05-17T15:57:30.144Z,18.10
2023-05-17T16:02:24.722Z,17.00
2023-05-17T16:04:51.447Z,17.20
2023-05-17T16:07:18.060Z,17.50
2023-05-17T16:09:45.128Z,18.90
2023-05-17T16:12:12.218Z,19.30
2023-05-17T16:14:40.831Z,21.50
2023-05-17T16:17:07.616Z,22.40
2023-05-17T16:19:34.608Z,20.70
2023-05-17T16:22:01.488Z,21.70
2023-05-17T16:24:28.282Z,19.80
2023-05-17T16:26:54.963Z,21.50
2023-05-17T16:29:21.730Z,20.30
2023-05-17T16:31:48.646Z,19.00
2023-05-17T16:34:15.482Z,19.00
2023-05-17T16:36:42.392Z,17.50
2023-05-17T16:39:09.025Z,17.90
2023-05-17T16:41:35.850Z,18.50
2023-05-17T16:44:02.709Z,19.30
2023-05-17T16:46:29.450Z,20.00
2023-05-17T16:48:56.120Z,20.00
2023-05-17T16:51:22.797Z,19.50
2023-05-17T16:53:50.013Z,18.90
2023-05-17T16:56:16.837Z,18.20
2023-05-17T16:58:43.522Z,16.60
2023-05-17T17:01:10.189Z,17.50
2023-05-17T17:03:36.890Z,17.20
2023-05-17T17:06:03.724Z,17.60
2023-05-17T17:08:30.481Z,16.60
2023-05-17T17:10:57.220Z,16.80
2023-05-17T17:18:18.263Z,15.80
2023-05-17T17:20:45.288Z,16.10
2023-05-17T17:23:12.300Z,15.80
2023-05-17T17:25:39.030Z,16.20
2023-05-17T17:28:05.763Z,15.10
2023-05-17T17:30:32.501Z,15.20
2023-05-17T17:32:59.439Z,15.20
2023-05-17T17:35:26.282Z,14.90
2023-05-17T17:37:53.299Z,15.00
2023-05-17T17:40:20.197Z,14.90
2023-05-17T17:42:47.264Z,15.00
2023-05-17T17:45:14.034Z,14.60
2023-05-17T17:47:42.130Z,14.60
2023-05-17T17:50:09.165Z,14.20
2023-05-17T17:52:37.273Z,14.30
2023-05-17T17:55:04.362Z,14.30
2023-05-17T17:57:32.108Z,14.20
2023-05-17T17:59:58.817Z,14.50
2023-05-17T18:02:25.685Z,14.70
2023-05-17T18:04:52.469Z,15.20
2023-05-17T18:07:19.190Z,14.30
2023-05-17T18:09:46.025Z,13.50
2023-05-17T18:12:12.697Z,14.30
2023-05-17T18:14:39.454Z,13.90
2023-05-17T18:17:08.112Z,14.20
2023-05-17T18:19:34.829Z,13.10
2023-05-17T18:22:01.696Z,12.90
2023-05-17T18:24:28.426Z,14.60
2023-05-17T18:26:55.089Z,13.30
2023-05-17T18:29:21.709Z,14.20
2023-05-17T18:31:48.418Z,14.30
2023-05-17T18:34:15.199Z,12.20
2023-05-17T18:36:42.419Z,12.70
2023-05-17T18:39:09.392Z,11.40
2023-05-17T18:41:36.092Z,11.80
2023-05-17T18:44:02.941Z,11.90
2023-05-17T18:46:29.842Z,12.40
2023-05-17T18:48:56.624Z,12.70
2023-05-17T18:51:23.269Z,13.80
2023-05-17T18:53:49.991Z,11.20
2023-05-17T18:56:22.598Z,10.70
2023-05-17T18:58:55.417Z,11.20
2023-05-17T19:01:22.205Z,12.00
2023-05-17T19:03:51.613Z,11.10
2023-05-17T19:08:49.137Z,11.80
2023-05-17T19:11:16.222Z,12.80
2023-05-17T19:13:42.898Z,11.60
2023-05-17T19:16:09.537Z,11.50
2023-05-17T19:21:03.443Z,11.50
2023-05-17T19:23:32.091Z,11.40
2023-05-17T19:25:58.989Z,11.10
2023-05-17T19:28:25.792Z,11.30
2023-05-17T19:30:52.523Z,11.20
2023-05-17T19:33:19.157Z,11.00
2023-05-17T19:38:13.281Z,11.00
2023-05-17T19:40:40.898Z,11.10
2023-05-17T19:43:07.711Z,11.00
2023-05-17T19:45:34.465Z,11.00
2023-05-17T19:48:01.300Z,10.80
2023-05-17T19:52:55.671Z,10.80
2023-05-17T19:55:22.963Z,11.60
2023-05-17T19:57:49.637Z,11.90
2023-05-17T20:02:47.337Z,10.40
2023-05-17T20:05:14.452Z,10.40
2023-05-17T20:07:41.202Z,10.40
2023-05-17T20:10:08.004Z,10.40
2023-05-17T20:12:34.697Z,10.30
2023-05-17T20:15:01.374Z,10.20
2023-05-17T20:17:28.020Z,9.80
2023-05-17T20:19:54.756Z,9.90
2023-05-17T20:22:21.474Z,9.40
2023-05-17T20:24:48.115Z,9.80
2023-05-17T20:27:15.497Z,9.70
2023-05-17T20:29:42.471Z,9.80
2023-05-17T20:32:09.285Z,9.70
2023-05-17T20:34:36.067Z,9.30
2023-05-17T20:37:02.722Z,9.10
2023-05-17T20:39:30.889Z,9.20
2023-05-17T20:41:58.284Z,8.80
2023-05-17T20:44:25.994Z,9.30
2023-05-17T20:46:52.971Z,9.00
2023-05-17T20:49:19.838Z,8.70
2023-05-17T20:51:46.520Z,8.90
2023-05-17T20:54:13.398Z,8.50
2023-05-17T20:56:40.063Z,9.50
2023-05-17T20:59:07.053Z,8.50
2023-05-17T21:01:34.028Z,9.60
2023-05-17T21:04:01.414Z,8.40
2023-05-17T21:06:30.239Z,8.30
2023-05-17T21:09:02.275Z,8.10
2023-05-17T21:11:29.720Z,8.10
2023-05-17T21:13:57.918Z,7.90
2023-05-17T21:16:24.756Z,8.00
2023-05-17T21:18:51.538Z,8.90
2023-05-17T21:21:18.464Z,7.50
2023-05-17T21:26:13.300Z,8.00
2023-05-17T21:28:40.107Z,8.50
2023-05-17T21:31:06.918Z,6.90
2023-05-17T21:36:00.752Z,7.50
2023-05-17T21:38:27.380Z,7.20
2023-05-17T21:40:55.501Z,7.20
2023-05-17T21:43:22.167Z,7.20
2023-05-17T21:45:48.804Z,7.20
2023-05-17T21:48:15.549Z,7.40
2023-05-17T21:50:42.176Z,7.10
2023-05-17T21:53:08.855Z,6.90
2023-05-17T21:55:36.967Z,6.60
2023-05-17T21:58:19.430Z,6.80
2023-05-17T22:00:46.092Z,6.70
2023-05-17T22:03:12.840Z,6.50
2023-05-17T22:05:39.562Z,6.70
2023-05-17T22:08:06.341Z,6.60
2023-05-17T22:10:33.072Z,6.60
2023-05-17T22:13:02.063Z,6.10
2023-05-17T22:15:30.868Z,6.60
2023-05-17T22:17:57.519Z,6.60
2023-05-17T22:20:26.276Z,6.30
2023-05-17T22:22:52.888Z,6.50
2023-05-17T22:25:19.525Z,6.20
2023-05-17T22:27:46.286Z,6.10
2023-05-17T22:30:13.009Z,6.10
2023-05-17T22:32:40.306Z,6.30
2023-05-17T22:35:07.236Z,6.00
2023-05-17T22:40:00.998Z,5.70
2023-05-17T22:42:27.735Z,5.90
2023-05-17T22:44:54.384Z,5.80
2023-05-17T22:47:23.258Z,5.80
2023-05-17T22:49:52.555Z,5.90
2023-05-17T22:52:19.860Z,5.80
2023-05-17T22:54:46.578Z,5.70
2023-05-17T22:57:13.206Z,5.70
2023-05-17T22:59:39.957Z,5.80
2023-05-17T23:02:06.776Z,5.80
2023-05-17T23:04:33.465Z,5.50
2023-05-17T23:07:02.206Z,5.10
2023-05-17T23:09:38.002Z,5.20
2023-05-17T23:12:07.690Z,5.50
2023-05-17T23:14:36.145Z,5.40
2023-05-17T23:17:03.985Z,5.10
2023-05-17T23:19:30.829Z,4.90
2023-05-17T23:21:57.673Z,5.00
2023-05-17T23:24:25.894Z,5.10
2023-05-17T23:26:52.668Z,5.00
2023-05-17T23:29:20.044Z,5.30
2023-05-17T23:31:48.147Z,5.00
2023-05-17T23:34:15.584Z,4.70
2023-05-17T23:36:42.226Z,4.90
2023-05-17T23:39:09.445Z,4.50
2023-05-17T23:44:06.350Z,5.00
2023-05-17T23:46:33.149Z,4.90
2023-05-17T23:48:59.828Z,4.80
2023-05-17T23:51:26.452Z,4.80
2023-05-17T23:53:53.085Z,4.60
2023-05-17T23:56:19.752Z,4.60
